createdAt,value
2022-11-19T00:02:22.739Z,5.83
2022-11-19T00:05:11.307Z,6.57
2022-11-19T00:07:59.736Z,4.50
2022-11-19T00:10:48.584Z,4.80
2022-11-19T00:13:38.018Z,5.27
2022-11-19T00:16:26.473Z,5.77
2022-11-19T00:19:15.368Z,4.30
2022-11-19T00:22:03.819Z,4.80
2022-11-19T00:24:52.290Z,5.20
2022-11-19T00:27:40.731Z,5.67
2022-11-19T00:30:47.675Z,4.40
2022-11-19T00:33:37.964Z,4.30
2022-11-19T00:36:26.425Z,6.33
2022-11-19T00:39:14.893Z,4.80
2022-11-19T00:42:03.302Z,4.80
2022-11-19T00:44:51.736Z,4.90
2022-11-19T00:47:41.568Z,5.47
2022-11-19T00:50:30.037Z,4.80
2022-11-19T00:53:18.554Z,4.53
2022-11-19T00:56:09.007Z,5.43
2022-11-19T00:58:57.740Z,4.70
2022-11-19T01:01:46.162Z,4.80
2022-11-19T01:04:35.919Z,5.03
2022-11-19T01:07:24.399Z,4.90
2022-11-19T01:10:12.914Z,5.20
2022-11-19T01:13:19.046Z,4.87
2022-11-19T01:16:09.597Z,4.90
2022-11-19T01:18:58.824Z,4.53
2022-11-19T01:21:48.618Z,5.23
2022-11-19T01:24:37.046Z,5.37
2022-11-19T01:27:25.487Z,4.47
2022-11-19T01:30:13.993Z,4.70
2022-11-19T01:33:02.434Z,4.90
2022-11-19T01:35:58.542Z,4.70
2022-11-19T01:38:50.838Z,4.53
2022-11-19T01:41:39.354Z,4.37
2022-11-19T01:45:03.601Z,4.00
2022-11-19T01:47:52.340Z,4.43
2022-11-19T01:50:44.430Z,4.70
2022-11-19T01:53:34.884Z,4.63
2022-11-19T01:56:24.856Z,3.83
2022-11-19T01:59:17.192Z,4.60
2022-11-19T02:02:05.990Z,4.47
2022-11-19T02:04:57.105Z,3.97
2022-11-19T02:07:48.969Z,4.23
2022-11-19T02:10:45.726Z,4.90
2022-11-19T02:13:39.631Z,4.53
2022-11-19T02:16:33.261Z,4.37
2022-11-19T02:19:45.705Z,4.57
2022-11-19T02:22:52.260Z,3.97
2022-11-19T02:25:56.736Z,5.20
2022-11-19T02:28:48.079Z,4.60
2022-11-19T02:31:41.020Z,4.53
2022-11-19T02:34:32.619Z,4.27
2022-11-19T02:37:25.602Z,5.13
2022-11-19T02:40:17.582Z,4.40
2022-11-19T02:43:12.230Z,4.40
2022-11-19T02:46:03.894Z,4.27
2022-11-19T02:48:53.729Z,5.30
2022-11-19T02:51:42.211Z,4.70
2022-11-19T02:54:30.719Z,4.50
2022-11-19T02:57:19.131Z,4.83
2022-11-19T03:00:25.984Z,3.80
2022-11-19T03:03:33.841Z,4.10
2022-11-19T03:06:26.415Z,5.23
2022-11-19T03:09:15.113Z,5.07
2022-11-19T03:12:10.957Z,5.93
2022-11-19T03:15:21.329Z,4.93
2022-11-19T03:18:13.838Z,4.90
2022-11-19T03:21:07.089Z,4.57
2022-11-19T03:24:00.045Z,5.47
2022-11-19T03:26:51.662Z,5.73
2022-11-19T03:29:44.042Z,5.80
2022-11-19T03:32:36.612Z,5.57
2022-11-19T03:35:28.244Z,5.97
2022-11-19T03:38:19.023Z,5.43
2022-11-19T03:41:09.931Z,5.37
2022-11-19T03:44:02.388Z,6.23
2022-11-19T03:46:54.025Z,5.80
2022-11-19T03:49:44.746Z,7.67
2022-11-19T03:52:33.484Z,6.30
2022-11-19T03:55:26.962Z,6.57
2022-11-19T03:58:16.758Z,6.93
2022-11-19T04:01:05.229Z,6.87
2022-11-19T04:04:11.249Z,6.63
2022-11-19T04:06:59.699Z,7.23
2022-11-19T04:09:48.249Z,7.40
2022-11-19T04:12:36.670Z,7.20
2022-11-19T04:15:26.480Z,6.40
2022-11-19T04:18:14.908Z,7.00
2022-11-19T04:21:03.327Z,6.73
2022-11-19T04:23:51.720Z,6.77
2022-11-19T04:26:40.245Z,7.23
2022-11-19T04:29:28.699Z,7.43
2022-11-19T04:32:18.604Z,7.27
2022-11-19T04:35:07.223Z,7.47
2022-11-19T04:37:55.650Z,7.07
2022-11-19T04:40:44.068Z,7.90
2022-11-19T04:43:32.482Z,7.17
2022-11-19T04:46:20.883Z,6.83
2022-11-19T04:49:10.651Z,7.90
2022-11-19T04:51:59.152Z,7.63
2022-11-19T04:54:47.642Z,7.60
2022-11-19T04:57:36.102Z,8.57
2022-11-19T05:00:24.755Z,7.77
2022-11-19T05:03:13.199Z,8.47
2022-11-19T05:06:02.975Z,7.33
2022-11-19T05:08:51.419Z,8.13
2022-11-19T05:11:39.845Z,7.90
2022-11-19T05:14:30.543Z,8.10
2022-11-19T05:17:19.192Z,8.60
2022-11-19T05:20:09.352Z,7.30
2022-11-19T05:22:59.154Z,8.57
2022-11-19T05:25:47.775Z,7.90
2022-11-19T05:28:40.061Z,6.50
2022-11-19T05:31:28.745Z,8.27
2022-11-19T05:34:17.212Z,7.80
2022-11-19T05:37:05.684Z,8.13
2022-11-19T05:39:55.518Z,7.80
2022-11-19T05:42:43.923Z,7.50
2022-11-19T05:45:32.389Z,7.47
2022-11-19T05:48:20.840Z,8.13
2022-11-19T05:51:09.302Z,8.03
2022-11-19T05:53:57.751Z,8.80
2022-11-19T05:56:47.636Z,7.60
2022-11-19T05:59:42.256Z,8.43
2022-11-19T06:02:32.193Z,8.50
2022-11-19T06:05:20.769Z,8.33
2022-11-19T06:08:09.182Z,8.03
2022-11-19T06:10:57.583Z,8.60
2022-11-19T06:13:47.350Z,9.03
2022-11-19T06:16:35.825Z,9.07
2022-11-19T06:19:24.909Z,7.77
2022-11-19T06:22:13.341Z,8.07
2022-11-19T06:25:01.803Z,9.27
2022-11-19T06:27:50.250Z,8.60
2022-11-19T06:30:40.014Z,8.83
2022-11-19T06:33:28.487Z,8.50
2022-11-19T06:36:17.023Z,8.97
2022-11-19T06:39:05.539Z,8.43
2022-11-19T06:41:53.984Z,9.93
2022-11-19T06:44:42.496Z,9.50
2022-11-19T06:47:32.614Z,10.40
2022-11-19T06:50:21.149Z,9.13
2022-11-19T06:53:09.601Z,8.70
2022-11-19T06:55:58.207Z,9.17
2022-11-19T06:58:46.767Z,10.20
2022-11-19T07:01:35.262Z,8.97
2022-11-19T07:04:25.094Z,9.27
2022-11-19T07:07:13.720Z,8.40
2022-11-19T07:10:02.282Z,9.77
2022-11-19T07:12:50.737Z,9.43
2022-11-19T07:15:39.161Z,8.23
2022-11-19T07:18:27.637Z,8.03
2022-11-19T07:21:17.438Z,9.63
2022-11-19T07:24:08.298Z,8.57
2022-11-19T07:26:57.054Z,7.97
2022-11-19T07:29:45.506Z,8.80
2022-11-19T07:32:34.149Z,8.43
2022-11-19T07:35:22.746Z,9.10
2022-11-19T07:38:12.590Z,9.03
2022-11-19T07:41:01.093Z,8.33
2022-11-19T07:43:48.597Z,9.97
2022-11-19T07:46:37.097Z,8.80
2022-11-19T07:49:26.080Z,8.83
2022-11-19T07:52:14.524Z,8.07
2022-11-19T07:55:04.741Z,8.60
2022-11-19T07:57:54.056Z,7.43
2022-11-19T08:00:43.090Z,9.57
2022-11-19T08:03:32.779Z,9.23
2022-11-19T08:06:21.958Z,8.30
2022-11-19T08:09:10.413Z,8.40
2022-11-19T08:12:00.199Z,8.50
2022-11-19T08:14:48.655Z,9.10
2022-11-19T08:17:54.734Z,8.87
2022-11-19T08:20:44.696Z,8.90
2022-11-19T08:23:33.627Z,9.40
2022-11-19T08:26:22.839Z,8.67
2022-11-19T08:29:16.400Z,8.77
2022-11-19T08:32:05.507Z,8.67
2022-11-19T08:34:54.017Z,8.63
2022-11-19T08:37:42.501Z,8.73
2022-11-19T08:40:31.031Z,6.70
2022-11-19T08:43:18.852Z,7.00
2022-11-19T08:46:09.157Z,7.43
2022-11-19T08:48:57.605Z,7.03
2022-11-19T08:51:46.464Z,6.03
2022-11-19T08:54:34.950Z,6.57
2022-11-19T08:57:23.508Z,5.73
2022-11-19T09:00:13.819Z,6.97
2022-11-19T09:03:04.259Z,6.30
2022-11-19T09:05:59.969Z,5.93
2022-11-19T09:08:48.483Z,5.37
2022-11-19T09:11:41.354Z,5.20
2022-11-19T09:14:31.353Z,5.57
2022-11-19T09:17:19.855Z,5.03
2022-11-19T09:20:10.812Z,5.40
2022-11-19T09:22:59.238Z,5.53
2022-11-19T09:25:55.964Z,5.97
2022-11-19T09:28:45.121Z,5.60
2022-11-19T09:31:33.627Z,5.70
2022-11-19T09:34:22.406Z,6.63
2022-11-19T09:37:12.405Z,6.03
2022-11-19T09:40:02.993Z,6.20
2022-11-19T09:42:58.746Z,6.17
2022-11-19T09:45:55.042Z,6.60
2022-11-19T09:48:45.632Z,6.43
2022-11-19T09:51:34.946Z,6.90
2022-11-19T09:54:24.983Z,6.80
2022-11-19T09:57:16.482Z,7.70
2022-11-19T10:00:10.742Z,6.53
2022-11-19T10:03:01.136Z,6.93
2022-11-19T10:05:59.024Z,6.73
2022-11-19T10:09:11.140Z,6.13
2022-11-19T10:12:07.932Z,6.93
2022-11-19T10:15:10.577Z,6.53
2022-11-19T10:18:06.077Z,7.77
2022-11-19T10:21:00.318Z,7.00
2022-11-19T10:23:52.769Z,7.37
2022-11-19T10:26:42.282Z,7.93
2022-11-19T10:29:36.084Z,6.97
2022-11-19T10:32:31.296Z,6.33
2022-11-19T10:35:23.305Z,5.80
2022-11-19T10:38:16.424Z,6.33
2022-11-19T10:41:11.332Z,5.07
2022-11-19T10:44:02.850Z,5.13
2022-11-19T10:46:52.719Z,4.63
2022-11-19T10:49:42.657Z,5.33
2022-11-19T10:52:34.709Z,5.53
2022-11-19T10:55:27.097Z,5.50
2022-11-19T10:58:19.202Z,5.77
2022-11-19T11:01:16.244Z,5.47
2022-11-19T11:04:08.534Z,5.63
2022-11-19T11:06:58.320Z,5.37
2022-11-19T11:09:47.084Z,5.90
2022-11-19T11:12:56.768Z,6.07
2022-11-19T11:15:45.839Z,6.00
2022-11-19T11:18:34.526Z,6.30
2022-11-19T11:21:32.437Z,6.00
2022-11-19T11:24:22.090Z,5.60
2022-11-19T11:27:20.118Z,6.13
2022-11-19T11:30:17.289Z,6.73
2022-11-19T11:33:27.623Z,6.10
2022-11-19T11:36:17.750Z,6.60
2022-11-19T11:39:07.713Z,6.83
2022-11-19T11:42:06.361Z,7.30
2022-11-19T11:44:57.835Z,6.93
2022-11-19T11:47:46.513Z,7.67
2022-11-19T11:50:36.796Z,8.07
2022-11-19T11:53:34.857Z,8.50
2022-11-19T11:56:24.659Z,8.90
2022-11-19T11:59:22.032Z,8.80
2022-11-19T12:02:21.248Z,8.20
2022-11-19T12:05:18.597Z,9.63
2022-11-19T12:08:12.555Z,8.27
2022-11-19T12:11:04.748Z,8.40
2022-11-19T12:13:58.710Z,8.73
2022-11-19T12:16:55.659Z,7.60
2022-11-19T12:19:58.634Z,7.67
2022-11-19T12:22:56.600Z,8.13
2022-11-19T12:25:53.751Z,7.20
2022-11-19T12:28:57.967Z,7.33
2022-11-19T12:32:00.662Z,6.90
2022-11-19T12:35:02.698Z,7.63
2022-11-19T12:38:05.806Z,7.47
2022-11-19T12:41:02.780Z,8.33
2022-11-19T12:43:58.137Z,8.30
2022-11-19T12:46:51.724Z,7.77
2022-11-19T12:49:56.295Z,7.37
2022-11-19T12:53:00.703Z,6.83
2022-11-19T12:55:57.441Z,7.23
2022-11-19T12:58:50.613Z,6.83
2022-11-19T13:01:43.680Z,7.10
2022-11-19T13:04:37.662Z,7.37
2022-11-19T13:07:29.703Z,7.63
2022-11-19T13:10:21.506Z,7.57
2022-11-19T13:13:14.394Z,7.40
2022-11-19T13:16:06.433Z,9.17
2022-11-19T13:19:11.546Z,8.73
2022-11-19T13:22:05.289Z,8.00
2022-11-19T13:24:55.789Z,8.37
2022-11-19T13:27:44.895Z,8.17
2022-11-19T13:30:35.181Z,10.30
2022-11-19T13:33:26.434Z,8.53
2022-11-19T13:36:20.946Z,9.03
2022-11-19T13:39:14.710Z,10.20
2022-11-19T13:42:21.475Z,12.37
2022-11-19T13:45:14.802Z,10.70
2022-11-19T13:48:06.297Z,11.33
2022-11-19T13:50:57.356Z,10.90
2022-11-19T13:53:47.468Z,10.63
2022-11-19T13:56:42.249Z,10.60
2022-11-19T13:59:35.042Z,11.53
2022-11-19T14:02:59.768Z,9.37
2022-11-19T14:06:12.516Z,11.67
2022-11-19T14:09:21.440Z,9.20
2022-11-19T14:12:27.378Z,9.67
2022-11-19T14:16:03.356Z,11.13
2022-11-19T14:19:11.466Z,11.10
2022-11-19T14:22:18.564Z,11.50
2022-11-19T14:25:27.981Z,11.80
2022-11-19T14:28:49.892Z,10.60
2022-11-19T14:32:22.292Z,10.90
2022-11-19T14:35:23.501Z,12.47
2022-11-19T14:38:39.354Z,10.93
2022-11-19T14:41:33.091Z,13.37
2022-11-19T14:44:34.002Z,12.73
2022-11-19T14:47:35.876Z,14.83
2022-11-19T14:50:28.098Z,14.60
2022-11-19T14:53:20.627Z,14.60
2022-11-19T14:56:11.944Z,13.60
2022-11-19T14:59:08.485Z,15.80
2022-11-19T15:01:59.429Z,16.37
2022-11-19T15:04:55.600Z,15.40
2022-11-19T15:07:51.254Z,16.80
2022-11-19T15:10:52.891Z,15.67
2022-11-19T15:13:42.055Z,15.77
2022-11-19T15:16:30.697Z,13.97
2022-11-19T15:19:30.451Z,14.20
2022-11-19T15:22:30.453Z,14.40
2022-11-19T15:25:38.188Z,14.50
2022-11-19T15:28:38.713Z,13.87
2022-11-19T15:31:36.084Z,14.00
2022-11-19T15:35:09.795Z,13.70
2022-11-19T15:38:00.558Z,14.20
2022-11-19T15:40:49.591Z,13.87
2022-11-19T15:43:42.246Z,12.97
2022-11-19T15:46:35.768Z,13.27
2022-11-19T15:49:26.051Z,13.10
2022-11-19T15:52:19.959Z,12.50
2022-11-19T15:55:13.562Z,13.27
2022-11-19T15:58:04.086Z,12.23
2022-11-19T16:00:53.017Z,10.90
2022-11-19T16:03:41.783Z,12.27
2022-11-19T16:06:31.598Z,12.30
2022-11-19T16:09:23.716Z,13.97
2022-11-19T16:12:38.860Z,12.97
2022-11-19T16:15:44.799Z,11.63
2022-11-19T16:18:33.287Z,12.90
2022-11-19T16:21:24.279Z,11.50
2022-11-19T16:24:32.439Z,11.80
2022-11-19T16:27:24.138Z,11.13
2022-11-19T16:30:19.941Z,11.27
2022-11-19T16:33:14.851Z,10.13
2022-11-19T16:36:14.410Z,9.90
2022-11-19T16:39:05.293Z,8.90
2022-11-19T16:42:15.628Z,10.90
2022-11-19T16:45:16.106Z,11.80
2022-11-19T16:48:04.638Z,11.10
2022-11-19T16:50:53.117Z,11.10
2022-11-19T16:53:45.979Z,10.90
2022-11-19T16:56:40.941Z,12.67
2022-11-19T16:59:29.503Z,11.30
2022-11-19T17:02:21.015Z,12.50
2022-11-19T17:05:12.367Z,11.63
2022-11-19T17:08:05.935Z,10.60
2022-11-19T17:11:37.707Z,11.60
2022-11-19T17:14:46.946Z,10.77
2022-11-19T17:17:41.633Z,9.77
2022-11-19T17:21:00.309Z,10.80
2022-11-19T17:23:50.319Z,10.07
2022-11-19T17:26:39.387Z,9.60
2022-11-19T17:29:28.337Z,10.30
2022-11-19T17:32:16.819Z,9.97
2022-11-19T17:35:08.858Z,11.90
2022-11-19T17:37:57.789Z,11.33
2022-11-19T17:40:47.812Z,11.90
2022-11-19T17:43:55.839Z,11.87
2022-11-19T17:46:44.347Z,13.03
2022-11-19T17:49:32.879Z,11.90
2022-11-19T17:52:24.407Z,14.07
2022-11-19T17:55:17.246Z,15.53
2022-11-19T17:58:05.783Z,15.27
2022-11-19T18:00:54.686Z,13.97
2022-11-19T18:03:43.383Z,14.00
2022-11-19T18:06:31.887Z,13.13
2022-11-19T18:09:22.005Z,12.60
2022-11-19T18:12:15.346Z,12.20
2022-11-19T18:15:04.337Z,14.97
2022-11-19T18:17:54.293Z,14.43
2022-11-19T18:20:42.822Z,14.73
2022-11-19T18:23:31.271Z,13.83
2022-11-19T18:26:23.408Z,13.77
2022-11-19T18:29:12.274Z,12.43
2022-11-19T18:32:00.750Z,12.53
2022-11-19T18:34:49.234Z,11.30
2022-11-19T18:37:38.005Z,10.33
2022-11-19T18:40:26.457Z,15.27
2022-11-19T18:43:39.690Z,12.30
2022-11-19T18:46:28.457Z,10.37
2022-11-19T18:49:17.003Z,11.47
2022-11-19T18:52:09.218Z,11.77
2022-11-19T18:54:57.822Z,11.70
2022-11-19T18:57:46.304Z,13.77
2022-11-19T19:00:36.197Z,11.37
2022-11-19T19:03:24.752Z,11.13
2022-11-19T19:06:13.506Z,11.00
2022-11-19T19:09:02.523Z,10.90
2022-11-19T19:12:13.474Z,12.40
2022-11-19T19:15:02.490Z,11.50
2022-11-19T19:17:52.424Z,12.00
2022-11-19T19:20:40.879Z,13.83
2022-11-19T19:23:29.471Z,11.23
2022-11-19T19:26:19.779Z,11.53
2022-11-19T19:29:08.935Z,13.17
2022-11-19T19:31:58.251Z,13.60
2022-11-19T19:34:48.278Z,12.60
2022-11-19T19:37:36.800Z,12.57
2022-11-19T19:40:25.575Z,11.00
2022-11-19T19:43:14.245Z,13.33
2022-11-19T19:46:06.023Z,12.27
2022-11-19T19:48:55.684Z,12.20
2022-11-19T19:51:45.604Z,12.40
2022-11-19T19:54:34.251Z,12.93
2022-11-19T19:57:22.736Z,12.57
2022-11-19T20:00:12.456Z,12.63
2022-11-19T20:03:01.013Z,15.37
2022-11-19T20:05:50.513Z,14.10
2022-11-19T20:08:41.194Z,12.87
2022-11-19T20:11:29.726Z,14.67
2022-11-19T20:14:18.428Z,14.13
2022-11-19T20:17:06.921Z,13.20
2022-11-19T20:19:55.415Z,13.93
2022-11-19T20:22:43.912Z,12.93
2022-11-19T20:25:33.874Z,13.90
2022-11-19T20:28:22.414Z,16.13
2022-11-19T20:31:12.624Z,14.83
2022-11-19T20:34:02.686Z,17.37
2022-11-19T20:36:51.219Z,18.50
2022-11-19T20:39:39.824Z,16.17
2022-11-19T20:42:47.296Z,17.60
2022-11-19T20:45:36.473Z,15.27
2022-11-19T20:48:25.155Z,16.03
2022-11-19T20:51:16.108Z,16.47
2022-11-19T20:54:05.170Z,16.17
2022-11-19T20:56:54.814Z,15.37
2022-11-19T20:59:44.645Z,15.97
2022-11-19T21:02:33.201Z,15.80
2022-11-19T21:05:21.762Z,15.03
2022-11-19T21:08:10.264Z,15.00
2022-11-19T21:11:00.761Z,16.43
2022-11-19T21:13:49.234Z,14.67
2022-11-19T21:16:39.276Z,13.90
2022-11-19T21:19:27.789Z,14.93
2022-11-19T21:22:16.213Z,14.23
2022-11-19T21:25:08.375Z,12.97
2022-11-19T21:28:01.324Z,14.60
2022-11-19T21:30:52.527Z,13.77
2022-11-19T21:33:42.984Z,16.50
2022-11-19T21:36:31.645Z,16.00
2022-11-19T21:39:20.949Z,13.40
2022-11-19T21:42:09.786Z,13.37
2022-11-19T21:44:58.301Z,12.67
2022-11-19T21:47:46.784Z,13.53
2022-11-19T21:50:39.618Z,14.27
2022-11-19T21:53:28.149Z,14.60
2022-11-19T21:56:16.773Z,15.33
2022-11-19T21:59:05.356Z,14.77
2022-11-19T22:01:55.010Z,15.77
2022-11-19T22:04:43.644Z,16.20
2022-11-19T22:07:34.137Z,16.20
2022-11-19T22:10:22.692Z,17.47
2022-11-19T22:13:11.279Z,16.10
2022-11-19T22:16:01.120Z,18.03
2022-11-19T22:18:49.588Z,19.40
2022-11-19T22:21:40.661Z,17.70
2022-11-19T22:24:30.588Z,18.63
2022-11-19T22:27:19.136Z,15.57
2022-11-19T22:30:08.783Z,15.03
2022-11-19T22:32:57.242Z,18.10
2022-11-19T22:35:46.400Z,18.10
2022-11-19T22:38:36.283Z,16.50
2022-11-19T22:41:26.531Z,15.70
2022-11-19T22:44:15.017Z,15.47
2022-11-19T22:47:03.463Z,14.93
2022-11-19T22:49:51.957Z,13.77
2022-11-19T22:52:40.399Z,15.47
2022-11-19T22:55:28.830Z,15.10
2022-11-19T22:58:18.622Z,15.50
2022-11-19T23:01:08.488Z,15.77
2022-11-19T23:03:58.565Z,15.27
2022-11-19T23:06:47.043Z,15.20
2022-11-19T23:09:35.472Z,15.83
2022-11-19T23:12:53.132Z,15.03
2022-11-19T23:15:43.272Z,16.60
2022-11-19T23:18:34.549Z,16.87
2022-11-19T23:21:24.957Z,15.13
2022-11-19T23:24:13.638Z,14.00
2022-11-19T23:27:02.148Z,15.30
2022-11-19T23:29:50.618Z,15.67
2022-11-19T23:32:40.762Z,16.20
2022-11-19T23:35:29.248Z,16.07
2022-11-19T23:38:18.300Z,16.67
2022-11-19T23:41:08.873Z,15.77
2022-11-19T23:43:57.642Z,17.60
2022-11-19T23:46:46.118Z,15.37
2022-11-19T23:49:35.940Z,17.20
2022-11-19T23:52:24.449Z,16.10
2022-11-19T23:55:12.949Z,17.93
2022-11-19T23:58:01.429Z,15.93
